sensor_id;sensor_type;location;lat;lon;timestamp;pressure;altitude;pressure_sealevel;temperature;humidity
4085;BME280;2057;50.858;6.572;2023-02-03T00:01:34;101395.38;;;8.43;100.00
4085;BME280;2057;50.858;6.572;2023-02-03T00:03:59;101376.88;;;8.44;100.00
4085;BME280;2057;50.858;6.572;2023-02-03T00:06:25;101378.63;;;8.45;100.00
4085;BME280;2057;50.858;6.572;2023-02-03T00:08:54;101363.44;;;8.45;100.00
4085;BME280;2057;50.858;6.572;2023-02-03T00:11:21;101356.50;;;8.43;100.00
4085;BME280;2057;50.858;6.572;2023-02-03T00:13:46;101336.16;;;8.41;100.00
4085;BME280;2057;50.858;6.572;2023-02-03T00:16:12;101347.72;;;8.38;100.00
4085;BME280;2057;50.858;6.572;2023-02-03T00:18:37;101333.41;;;8.38;100.00
4085;BME280;2057;50.858;6.572;2023-02-03T00:21:03;101330.34;;;8.42;100.00
4085;BME280;2057;50.858;6.572;2023-02-03T00:23:29;101314.94;;;8.39;100.00
4085;BME280;2057;50.858;6.572;2023-02-03T00:25:56;101318.13;;;8.37;100.00
4085;BME280;2057;50.858;6.572;2023-02-03T00:28:22;101314.25;;;8.42;100.00
4085;BME280;2057;50.858;6.572;2023-02-03T00:30:47;101311.53;;;8.39;100.00
4085;BME280;2057;50.858;6.572;2023-02-03T00:33:13;101314.25;;;8.42;100.00
4085;BME280;2057;50.858;6.572;2023-02-03T00:35:39;101326.03;;;8.41;100.00
4085;BME280;2057;50.858;6.572;2023-02-03T00:38:04;101317.13;;;8.46;100.00
4085;BME280;2057;50.858;6.572;2023-02-03T00:40:32;101318.78;;;8.46;100.00
4085;BME280;2057;50.858;6.572;2023-02-03T00:42:58;101310.28;;;8.45;100.00
4085;BME280;2057;50.858;6.572;2023-02-03T00:45:23;101319.66;;;8.46;100.00
4085;BME280;2057;50.858;6.572;2023-02-03T00:47:48;101317.38;;;8.50;100.00
4085;BME280;2057;50.858;6.572;2023-02-03T00:50:14;101329.03;;;8.47;100.00
4085;BME280;2057;50.858;6.572;2023-02-03T00:52:39;101310.09;;;8.54;100.00
4085;BME280;2057;50.858;6.572;2023-02-03T00:55:05;101298.66;;;8.47;100.00
4085;BME280;2057;50.858;6.572;2023-02-03T00:57:31;101307.47;;;8.53;100.00
4085;BME280;2057;50.858;6.572;2023-02-03T00:59:57;101307.75;;;8.45;100.00
4085;BME280;2057;50.858;6.572;2023-02-03T01:02:24;101302.28;;;8.51;100.00
4085;BME280;2057;50.858;6.572;2023-02-03T01:04:49;101301.31;;;8.49;100.00
4085;BME280;2057;50.858;6.572;2023-02-03T01:07:15;101296.88;;;8.46;100.00
4085;BME280;2057;50.858;6.572;2023-02-03T01:09:41;101291.81;;;8.46;100.00
4085;BME280;2057;50.858;6.572;2023-02-03T01:12:07;101306.13;;;8.58;100.00
4085;BME280;2057;50.858;6.572;2023-02-03T01:14:35;101301.31;;;8.49;100.00
4085;BME280;2057;50.858;6.572;2023-02-03T01:17:00;101309.69;;;8.48;100.00
4085;BME280;2057;50.858;6.572;2023-02-03T01:19:30;101298.13;;;8.52;100.00
4085;BME280;2057;50.858;6.572;2023-02-03T01:21:58;101303.19;;;8.52;100.00
4085;BME280;2057;50.858;6.572;2023-02-03T01:24:28;101310.09;;;8.42;100.00
4085;BME280;2057;50.858;6.572;2023-02-03T01:26:53;101322.44;;;8.50;100.00
4085;BME280;2057;50.858;6.572;2023-02-03T01:29:20;101318.69;;;8.56;100.00
4085;BME280;2057;50.858;6.572;2023-02-03T01:31:45;101340.72;;;8.57;100.00
4085;BME280;2057;50.858;6.572;2023-02-03T01:34:12;101329.69;;;8.57;100.00
4085;BME280;2057;50.858;6.572;2023-02-03T01:36:38;101340.03;;;8.60;100.00
4085;BME280;2057;50.858;6.572;2023-02-03T01:39:06;101349.41;;;8.61;100.00
4085;BME280;2057;50.858;6.572;2023-02-03T01:41:36;101346.72;;;8.59;100.00
4085;BME280;2057;50.858;6.572;2023-02-03T01:46:59;101344.88;;;8.57;100.00
4085;BME280;2057;50.858;6.572;2023-02-03T01:49:30;101341.91;;;8.51;100.00
4085;BME280;2057;50.858;6.572;2023-02-03T01:51:58;101348.84;;;8.53;100.00
4085;BME280;2057;50.858;6.572;2023-02-03T01:54:30;101363.25;;;8.54;100.00
4085;BME280;2057;50.858;6.572;2023-02-03T01:57:13;101374.16;;;8.53;100.00
4085;BME280;2057;50.858;6.572;2023-02-03T01:59:41;101373.56;;;8.45;100.00
4085;BME280;2057;50.858;6.572;2023-02-03T02:02:08;101374.81;;;8.51;100.00
4085;BME280;2057;50.858;6.572;2023-02-03T02:04:49;101361.69;;;8.44;100.00
4085;BME280;2057;50.858;6.572;2023-02-03T02:07:17;101363.22;;;8.42;100.00
4085;BME280;2057;50.858;6.572;2023-02-03T02:09:43;101347.28;;;8.43;100.00
4085;BME280;2057;50.858;6.572;2023-02-03T02:12:10;101364.88;;;8.42;100.00
4085;BME280;2057;50.858;6.572;2023-02-03T02:14:36;101331.44;;;8.46;100.00
4085;BME280;2057;50.858;6.572;2023-02-03T02:17:15;101329.03;;;8.47;100.00
4085;BME280;2057;50.858;6.572;2023-02-03T02:24:59;101341.81;;;8.49;100.00
4085;BME280;2057;50.858;6.572;2023-02-03T02:36:25;101359.88;;;8.54;100.00
4085;BME280;2057;50.858;6.572;2023-02-03T02:39:18;101340.47;;;8.54;100.00
4085;BME280;2057;50.858;6.572;2023-02-03T02:41:59;101323.44;;;8.52;100.00
4085;BME280;2057;50.858;6.572;2023-02-03T02:44:38;101327.50;;;8.50;100.00
4085;BME280;2057;50.858;6.572;2023-02-03T02:47:13;101329.16;;;8.49;100.00
4085;BME280;2057;50.858;6.572;2023-02-03T02:52:12;101317.94;;;8.57;100.00
4085;BME280;2057;50.858;6.572;2023-02-03T02:54:41;101322.09;;;8.57;100.00
4085;BME280;2057;50.858;6.572;2023-02-03T02:57:10;101321.09;;;8.55;100.00
4085;BME280;2057;50.858;6.572;2023-02-03T02:59:36;101305.72;;;8.52;100.00
4085;BME280;2057;50.858;6.572;2023-02-03T03:02:02;101314.41;;;8.55;100.00
4085;BME280;2057;50.858;6.572;2023-02-03T03:04:30;101315.50;;;8.47;100.00
4085;BME280;2057;50.858;6.572;2023-02-03T03:07:22;101335.19;;;8.51;100.00
4085;BME280;2057;50.858;6.572;2023-02-03T03:09:56;101332.31;;;8.46;100.00
4085;BME280;2057;50.858;6.572;2023-02-03T03:12:29;101337.72;;;8.51;100.00
4085;BME280;2057;50.858;6.572;2023-02-03T03:15:01;101343.25;;;8.57;100.00
4085;BME280;2057;50.858;6.572;2023-02-03T03:17:33;101356.53;;;8.55;100.00
4085;BME280;2057;50.858;6.572;2023-02-03T03:20:10;101344.69;;;8.54;100.00
4085;BME280;2057;50.858;6.572;2023-02-03T03:22:47;101345.44;;;8.53;100.00
4085;BME280;2057;50.858;6.572;2023-02-03T03:25:17;101317.47;;;8.51;100.00
4085;BME280;2057;50.858;6.572;2023-02-03T03:27:48;101321.66;;;8.51;100.00
4085;BME280;2057;50.858;6.572;2023-02-03T03:30:25;101310.56;;;8.48;100.00
4085;BME280;2057;50.858;6.572;2023-02-03T03:32:53;101308.25;;;8.52;100.00
4085;BME280;2057;50.858;6.572;2023-02-03T03:35:19;101316.59;;;8.51;100.00
4085;BME280;2057;50.858;6.572;2023-02-03T03:38:59;101332.09;;;8.43;100.00
4085;BME280;2057;50.858;6.572;2023-02-03T03:41:03;101317.13;;;8.46;100.00
4085;BME280;2057;50.858;6.572;2023-02-03T03:43:33;101328.81;;;8.44;100.00
4085;BME280;2057;50.858;6.572;2023-02-03T03:46:26;101308.56;;;8.44;100.00
4085;BME280;2057;50.858;6.572;2023-02-03T03:49:01;101315.34;;;8.45;100.00
4085;BME280;2057;50.858;6.572;2023-02-03T03:53:55;101314.06;;;8.51;100.00
4085;BME280;2057;50.858;6.572;2023-02-03T03:56:29;101300.16;;;8.45;100.00
4085;BME280;2057;50.858;6.572;2023-02-03T03:59:00;101312.22;;;8.48;100.00
4085;BME280;2057;50.858;6.572;2023-02-03T04:01:28;101313.41;;;8.53;100.00
4085;BME280;2057;50.858;6.572;2023-02-03T04:03:57;101308.44;;;8.43;100.00
4085;BME280;2057;50.858;6.572;2023-02-03T04:06:23;101306.78;;;8.43;100.00
4085;BME280;2057;50.858;6.572;2023-02-03T04:08:50;101309.44;;;8.45;100.00
4085;BME280;2057;50.858;6.572;2023-02-03T04:11:16;101324.09;;;8.49;100.00
4085;BME280;2057;50.858;6.572;2023-02-03T04:14:02;101332.09;;;8.43;100.00
4085;BME280;2057;50.858;6.572;2023-02-03T04:16:27;101321.31;;;8.46;100.00
4085;BME280;2057;50.858;6.572;2023-02-03T04:18:52;101316.91;;;8.43;100.00
4085;BME280;2057;50.858;6.572;2023-02-03T04:21:18;101308.78;;;8.47;100.00
4085;BME280;2057;50.858;6.572;2023-02-03T04:23:43;101312.81;;;8.45;100.00
4085;BME280;2057;50.858;6.572;2023-02-03T04:26:08;101304.72;;;8.50;100.00
4085;BME280;2057;50.858;6.572;2023-02-03T04:28:34;101290.03;;;8.45;100.00
4085;BME280;2057;50.858;6.572;2023-02-03T04:31:00;101300.84;;;8.43;100.00
4085;BME280;2057;50.858;6.572;2023-02-03T04:33:25;101290.03;;;8.45;100.00
4085;BME280;2057;50.858;6.572;2023-02-03T04:35:53;101302.69;;;8.45;100.00
4085;BME280;2057;50.858;6.572;2023-02-03T04:38:18;101325.47;;;8.45;100.00
4085;BME280;2057;50.858;6.572;2023-02-03T04:40:44;101302.97;;;8.48;100.00
4085;BME280;2057;50.858;6.572;2023-02-03T04:43:10;101301.41;;;8.51;100.00
4085;BME280;2057;50.858;6.572;2023-02-03T04:45:36;101314.19;;;8.52;100.00
4085;BME280;2057;50.858;6.572;2023-02-03T04:48:02;101300.44;;;8.48;100.00
4085;BME280;2057;50.858;6.572;2023-02-03T04:50:29;101302.19;;;8.50;100.00
4085;BME280;2057;50.858;6.572;2023-02-03T04:52:54;101318.38;;;8.52;100.00
4085;BME280;2057;50.858;6.572;2023-02-03T04:55:20;101313.09;;;8.48;100.00
4085;BME280;2057;50.858;6.572;2023-02-03T04:57:45;101321.56;;;8.49;100.00
4085;BME280;2057;50.858;6.572;2023-02-03T05:00:11;101323.84;;;8.46;100.00
4085;BME280;2057;50.858;6.572;2023-02-03T05:02:36;101323.84;;;8.46;100.00
4085;BME280;2057;50.858;6.572;2023-02-03T05:05:02;101322.19;;;8.46;100.00
4085;BME280;2057;50.858;6.572;2023-02-03T05:07:27;101318.78;;;8.46;100.00
4085;BME280;2057;50.858;6.572;2023-02-03T05:09:53;101316.16;;;8.44;100.00
4085;BME280;2057;50.858;6.572;2023-02-03T05:12:18;101311.31;;;8.47;100.00
4085;BME280;2057;50.858;6.572;2023-02-03T05:14:43;101312.41;;;8.51;100.00
4085;BME280;2057;50.858;6.572;2023-02-03T05:17:09;101297.34;;;8.53;100.00
4085;BME280;2057;50.858;6.572;2023-02-03T05:19:34;101303.50;;;8.44;100.00
4085;BME280;2057;50.858;6.572;2023-02-03T05:21:59;101309.88;;;8.51;100.00
4085;BME280;2057;50.858;6.572;2023-02-03T05:24:25;101317.28;;;8.48;100.00
4085;BME280;2057;50.858;6.572;2023-02-03T05:26:50;101324.97;;;8.50;100.00
4085;BME280;2057;50.858;6.572;2023-02-03T05:29:15;101320.56;;;8.47;100.00
4085;BME280;2057;50.858;6.572;2023-02-03T05:31:40;101323.09;;;8.47;100.00
4085;BME280;2057;50.858;6.572;2023-02-03T05:34:06;101330.44;;;8.44;100.00
4085;BME280;2057;50.858;6.572;2023-02-03T05:36:31;101325.28;;;8.42;100.00
4085;BME280;2057;50.858;6.572;2023-02-03T05:38:57;101314.06;;;8.39;100.00
4085;BME280;2057;50.858;6.572;2023-02-03T05:41:22;101293.38;;;8.44;100.00
4085;BME280;2057;50.858;6.572;2023-02-03T05:44:06;101303.38;;;8.43;100.00
4085;BME280;2057;50.858;6.572;2023-02-03T05:46:32;101287.69;;;8.47;100.00
4085;BME280;2057;50.858;6.572;2023-02-03T05:48:57;101284.97;;;8.45;100.00
4085;BME280;2057;50.858;6.572;2023-02-03T05:51:22;101293.47;;;8.46;100.00
4085;BME280;2057;50.858;6.572;2023-02-03T05:53:49;101288.31;;;8.44;100.00
4085;BME280;2057;50.858;6.572;2023-02-03T05:56:14;101290.72;;;8.43;100.00
4085;BME280;2057;50.858;6.572;2023-02-03T05:58:42;101283.25;;;8.44;100.00
4085;BME280;2057;50.858;6.572;2023-02-03T06:01:07;101299.31;;;8.45;100.00
4085;BME280;2057;50.858;6.572;2023-02-03T06:03:37;101296.69;;;8.43;100.00
4085;BME280;2057;50.858;6.572;2023-02-03T06:06:05;101298.66;;;8.47;100.00
4085;BME280;2057;50.858;6.572;2023-02-03T06:08:33;101309.69;;;8.48;100.00
4085;BME280;2057;50.858;6.572;2023-02-03T06:10:58;101310.78;;;8.52;100.00
4085;BME280;2057;50.858;6.572;2023-02-03T06:13:27;101334.31;;;8.51;100.00
4085;BME280;2057;50.858;6.572;2023-02-03T06:15:53;101329.50;;;8.54;100.00
4085;BME280;2057;50.858;6.572;2023-02-03T06:18:19;101314.06;;;8.51;100.00
4085;BME280;2057;50.858;6.572;2023-02-03T06:20:44;101316.84;;;8.54;100.00
4085;BME280;2057;50.858;6.572;2023-02-03T06:23:09;101323.00;;;8.57;100.00
4085;BME280;2057;50.858;6.572;2023-02-03T06:25:35;101328.81;;;8.56;100.00
4085;BME280;2057;50.858;6.572;2023-02-03T06:28:01;101344.78;;;8.55;100.00
4085;BME280;2057;50.858;6.572;2023-02-03T06:30:26;101336.41;;;8.56;100.00
4085;BME280;2057;50.858;6.572;2023-02-03T06:32:52;101327.94;;;8.56;100.00
4085;BME280;2057;50.858;6.572;2023-02-03T06:35:17;101329.34;;;8.52;100.00
4085;BME280;2057;50.858;6.572;2023-02-03T06:37:43;101316.72;;;8.52;100.00
4085;BME280;2057;50.858;6.572;2023-02-03T06:40:09;101332.13;;;8.55;100.00
4085;BME280;2057;50.858;6.572;2023-02-03T06:42:35;101334.56;;;8.54;100.00
4085;BME280;2057;50.858;6.572;2023-02-03T06:45:00;101323.09;;;8.59;100.00
4085;BME280;2057;50.858;6.572;2023-02-03T06:47:26;101324.84;;;8.60;100.00
4085;BME280;2057;50.858;6.572;2023-02-03T06:49:54;101337.50;;;8.60;100.00
4085;BME280;2057;50.858;6.572;2023-02-03T06:52:19;101312.06;;;8.58;100.00
4085;BME280;2057;50.858;6.572;2023-02-03T06:54:44;101303.59;;;8.58;100.00
4085;BME280;2057;50.858;6.572;2023-02-03T06:57:12;101320.56;;;8.59;100.00
4085;BME280;2057;50.858;6.572;2023-02-03T06:59:37;101312.88;;;8.57;100.00
4085;BME280;2057;50.858;6.572;2023-02-03T07:02:04;101307.22;;;8.61;100.00
4085;BME280;2057;50.858;6.572;2023-02-03T07:04:29;101309.44;;;8.57;100.00
4085;BME280;2057;50.858;6.572;2023-02-03T07:06:55;101306.13;;;8.58;100.00
4085;BME280;2057;50.858;6.572;2023-02-03T07:09:21;101303.06;;;8.62;100.00
4085;BME280;2057;50.858;6.572;2023-02-03T07:11:47;101298.88;;;8.62;100.00
4085;BME280;2057;50.858;6.572;2023-02-03T07:14:12;101290.94;;;8.58;100.00
4085;BME280;2057;50.858;6.572;2023-02-03T07:16:38;101291.06;;;8.59;100.00
4085;BME280;2057;50.858;6.572;2023-02-03T07:19:04;101294.56;;;8.61;100.00
4085;BME280;2057;50.858;6.572;2023-02-03T07:21:29;101285.91;;;8.58;100.00
4085;BME280;2057;50.858;6.572;2023-02-03T07:23:55;101298.66;;;8.59;100.00
4085;BME280;2057;50.858;6.572;2023-02-03T07:26:20;101294.47;;;8.60;100.00
4085;BME280;2057;50.858;6.572;2023-02-03T07:28:47;101299.88;;;8.65;100.00
4085;BME280;2057;50.858;6.572;2023-02-03T07:31:18;101305.13;;;8.68;99.93
4085;BME280;2057;50.858;6.572;2023-02-03T07:33:43;101320.31;;;8.68;100.00
4085;BME280;2057;50.858;6.572;2023-02-03T07:36:10;101316.38;;;8.71;100.00
4085;BME280;2057;50.858;6.572;2023-02-03T07:38:36;101311.41;;;8.73;100.00
4085;BME280;2057;50.858;6.572;2023-02-03T07:41:03;101309.53;;;8.70;100.00
4085;BME280;2057;50.858;6.572;2023-02-03T07:43:33;101318.09;;;8.72;100.00
4085;BME280;2057;50.858;6.572;2023-02-03T07:45:58;101327.81;;;8.66;100.00
4085;BME280;2057;50.858;6.572;2023-02-03T07:48:25;101310.31;;;8.69;100.00
4085;BME280;2057;50.858;6.572;2023-02-03T07:50:51;101319.88;;;8.73;100.00
4085;BME280;2057;50.858;6.572;2023-02-03T07:53:17;101320.75;;;8.74;100.00
4085;BME280;2057;50.858;6.572;2023-02-03T07:55:43;101316.25;;;8.70;100.00
4085;BME280;2057;50.858;6.572;2023-02-03T07:58:08;101333.06;;;8.81;100.00
4085;BME280;2057;50.858;6.572;2023-02-03T08:00:34;101336.06;;;8.75;99.93
4085;BME280;2057;50.858;6.572;2023-02-03T08:03:02;101326.91;;;8.77;99.81
4085;BME280;2057;50.858;6.572;2023-02-03T08:05:27;101337.03;;;8.77;100.00
4085;BME280;2057;50.858;6.572;2023-02-03T08:07:56;101340.88;;;8.72;100.00
4085;BME280;2057;50.858;6.572;2023-02-03T08:10:22;101332.75;;;8.76;99.81
4085;BME280;2057;50.858;6.572;2023-02-03T08:12:47;101340.34;;;8.76;99.99
4085;BME280;2057;50.858;6.572;2023-02-03T08:15:15;101324.38;;;8.77;99.79
4085;BME280;2057;50.858;6.572;2023-02-03T08:17:44;101342.53;;;8.84;99.31
4085;BME280;2057;50.858;6.572;2023-02-03T08:20:10;101342.22;;;8.79;100.00
4085;BME280;2057;50.858;6.572;2023-02-03T08:22:36;101317.56;;;8.76;100.00
4085;BME280;2057;50.858;6.572;2023-02-03T08:25:01;101344.50;;;8.76;100.00
4085;BME280;2057;50.858;6.572;2023-02-03T08:27:30;101316.03;;;8.78;100.00
4085;BME280;2057;50.858;6.572;2023-02-03T08:29:55;101327.91;;;8.79;99.93
4085;BME280;2057;50.858;6.572;2023-02-03T08:32:21;101338.03;;;8.79;100.00
4085;BME280;2057;50.858;6.572;2023-02-03T08:34:49;101332.31;;;8.82;100.00
4085;BME280;2057;50.858;6.572;2023-02-03T08:37:17;101353.22;;;8.79;100.00
4085;BME280;2057;50.858;6.572;2023-02-03T08:39:43;101343.28;;;8.83;100.00
4085;BME280;2057;50.858;6.572;2023-02-03T08:42:08;101351.56;;;8.80;100.00
4085;BME280;2057;50.858;6.572;2023-02-03T08:44:33;101354.19;;;8.82;100.00
4085;BME280;2057;50.858;6.572;2023-02-03T08:47:00;101351.47;;;8.78;100.00
4085;BME280;2057;50.858;6.572;2023-02-03T08:49:29;101369.63;;;8.73;100.00
4085;BME280;2057;50.858;6.572;2023-02-03T08:51:55;101360.94;;;8.69;100.00
4085;BME280;2057;50.858;6.572;2023-02-03T08:54:21;101355.22;;;8.72;100.00
4085;BME280;2057;50.858;6.572;2023-02-03T08:56:47;101375.56;;;8.73;100.00
4085;BME280;2057;50.858;6.572;2023-02-03T08:59:13;101379.44;;;8.68;100.00
4085;BME280;2057;50.858;6.572;2023-02-03T09:01:39;101367.31;;;8.64;100.00
4085;BME280;2057;50.858;6.572;2023-02-03T09:04:08;101391.44;;;8.59;100.00
4085;BME280;2057;50.858;6.572;2023-02-03T09:06:34;101360.16;;;8.58;100.00
4085;BME280;2057;50.858;6.572;2023-02-03T09:09:00;101369.41;;;8.58;100.00
4085;BME280;2057;50.858;6.572;2023-02-03T09:11:25;101366.44;;;8.63;100.00
4085;BME280;2057;50.858;6.572;2023-02-03T09:13:50;101370.63;;;8.63;100.00
4085;BME280;2057;50.858;6.572;2023-02-03T09:16:18;101364.91;;;8.66;100.00
4085;BME280;2057;50.858;6.572;2023-02-03T09:18:44;101377.00;;;8.70;100.00
4085;BME280;2057;50.858;6.572;2023-02-03T09:21:11;101372.72;;;8.69;100.00
4085;BME280;2057;50.858;6.572;2023-02-03T09:23:37;101392.41;;;8.73;100.00
4085;BME280;2057;50.858;6.572;2023-02-03T09:26:07;101374.59;;;8.71;100.00
4085;BME280;2057;50.858;6.572;2023-02-03T09:28:34;101374.69;;;8.73;100.00
4085;BME280;2057;50.858;6.572;2023-02-03T09:31:00;101378.22;;;8.75;100.00
4085;BME280;2057;50.858;6.572;2023-02-03T09:33:26;101372.84;;;8.70;100.00
4085;BME280;2057;50.858;6.572;2023-02-03T09:35:53;101367.00;;;8.71;100.00
4085;BME280;2057;50.858;6.572;2023-02-03T09:38:19;101373.59;;;8.69;100.00
4085;BME280;2057;50.858;6.572;2023-02-03T09:40:46;101372.94;;;8.60;100.00
4085;BME280;2057;50.858;6.572;2023-02-03T09:45:48;101371.41;;;8.62;100.00
4085;BME280;2057;50.858;6.572;2023-02-03T09:48:19;101360.72;;;8.54;100.00
4085;BME280;2057;50.858;6.572;2023-02-03T09:50:47;101359.63;;;8.51;100.00
4085;BME280;2057;50.858;6.572;2023-02-03T09:53:38;101377.66;;;8.43;100.00
4085;BME280;2057;50.858;6.572;2023-02-03T09:56:19;101369.53;;;8.47;100.00
4085;BME280;2057;50.858;6.572;2023-02-03T09:58:47;101371.94;;;8.46;100.00
4085;BME280;2057;50.858;6.572;2023-02-03T10:01:13;101373.06;;;8.50;100.00
4085;BME280;2057;50.858;6.572;2023-02-03T10:04:19;101412.19;;;8.43;100.00
4085;BME280;2057;50.858;6.572;2023-02-03T10:06:42;101371.28;;;8.48;100.00
4085;BME280;2057;50.858;6.572;2023-02-03T10:09:37;101363.34;;;8.44;100.00
4085;BME280;2057;50.858;6.572;2023-02-03T10:17:58;101387.31;;;8.37;100.00
4085;BME280;2057;50.858;6.572;2023-02-03T10:23:00;101401.94;;;8.29;100.00
4085;BME280;2057;50.858;6.572;2023-02-03T10:25:33;101403.56;;;8.29;100.00
4085;BME280;2057;50.858;6.572;2023-02-03T10:28:03;101412.38;;;8.22;100.00
4085;BME280;2057;50.858;6.572;2023-02-03T10:30:38;101422.38;;;8.21;100.00
4085;BME280;2057;50.858;6.572;2023-02-03T10:33:12;101428.84;;;8.17;100.00
4085;BME280;2057;50.858;6.572;2023-02-03T10:39:14;101435.13;;;8.10;100.00
4085;BME280;2057;50.858;6.572;2023-02-03T10:41:41;101435.00;;;8.09;100.00
4085;BME280;2057;50.858;6.572;2023-02-03T10:44:09;101411.03;;;8.04;100.00
4085;BME280;2057;50.858;6.572;2023-02-03T10:46:38;101416.97;;;8.04;100.00
4085;BME280;2057;50.858;6.572;2023-02-03T10:49:04;101410.88;;;8.02;100.00
4085;BME280;2057;50.858;6.572;2023-02-03T10:51:48;101403.13;;;8.11;100.00
4085;BME280;2057;50.858;6.572;2023-02-03T10:54:32;101398.72;;;8.08;100.00
4085;BME280;2057;50.858;6.572;2023-02-03T10:57:13;101386.41;;;8.01;100.00
4085;BME280;2057;50.858;6.572;2023-02-03T10:59:48;101389.28;;;8.06;100.00
4085;BME280;2057;50.858;6.572;2023-02-03T11:02:24;101389.59;;;8.10;100.00
4085;BME280;2057;50.858;6.572;2023-02-03T11:05:17;101385.06;;;8.06;100.00
4085;BME280;2057;50.858;6.572;2023-02-03T11:07:44;101367.28;;;8.16;100.00
4085;BME280;2057;50.858;6.572;2023-02-03T11:21:14;101377.97;;;8.36;100.00
4085;BME280;2057;50.858;6.572;2023-02-03T11:26:12;101380.94;;;8.42;100.00
4085;BME280;2057;50.858;6.572;2023-02-03T11:28:44;101385.78;;;8.39;100.00
4085;BME280;2057;50.858;6.572;2023-02-03T11:31:23;101375.88;;;8.42;100.00
4085;BME280;2057;50.858;6.572;2023-02-03T11:33:53;101365.75;;;8.42;100.00
4085;BME280;2057;50.858;6.572;2023-02-03T11:36:20;101366.63;;;8.43;100.00
4085;BME280;2057;50.858;6.572;2023-02-03T11:38:45;101371.03;;;8.45;100.00
4085;BME280;2057;50.858;6.572;2023-02-03T11:41:18;101355.06;;;8.46;100.00
4085;BME280;2057;50.858;6.572;2023-02-03T11:43:45;101352.53;;;8.46;100.00
4085;BME280;2057;50.858;6.572;2023-02-03T11:46:11;101364.03;;;8.53;100.00
4085;BME280;2057;50.858;6.572;2023-02-03T11:49:19;101347.31;;;8.55;100.00
4085;BME280;2057;50.858;6.572;2023-02-03T11:51:55;101360.06;;;8.57;100.00
4085;BME280;2057;50.858;6.572;2023-02-03T11:54:41;101366.88;;;8.58;100.00
4085;BME280;2057;50.858;6.572;2023-02-03T11:57:33;101366.66;;;8.55;100.00
4085;BME280;2057;50.858;6.572;2023-02-03T12:05:19;101419.94;;;8.56;100.00
4085;BME280;2057;50.858;6.572;2023-02-03T12:11:09;101407.63;;;8.61;100.00
4085;BME280;2057;50.858;6.572;2023-02-03T12:21:45;101387.78;;;8.67;100.00
4085;BME280;2057;50.858;6.572;2023-02-03T12:24:23;101394.84;;;8.59;100.00
4085;BME280;2057;50.858;6.572;2023-02-03T12:29:50;101381.53;;;8.62;100.00
4085;BME280;2057;50.858;6.572;2023-02-03T12:32:26;101395.38;;;8.67;100.00
4085;BME280;2057;50.858;6.572;2023-02-03T12:35:03;101372.59;;;8.67;100.00
4085;BME280;2057;50.858;6.572;2023-02-03T12:37:38;101369.41;;;8.70;100.00
4085;BME280;2057;50.858;6.572;2023-02-03T12:40:25;101363.34;;;8.68;100.00
4085;BME280;2057;50.858;6.572;2023-02-03T12:43:02;101375.81;;;8.65;100.00
4085;BME280;2057;50.858;6.572;2023-02-03T12:45:35;101382.19;;;8.71;100.00
4085;BME280;2057;50.858;6.572;2023-02-03T12:48:11;101376.13;;;8.69;100.00
4085;BME280;2057;50.858;6.572;2023-02-03T12:50:44;101378.09;;;8.73;100.00
4085;BME280;2057;50.858;6.572;2023-02-03T12:53:17;101380.19;;;8.67;100.00
4085;BME280;2057;50.858;6.572;2023-02-03T12:55:49;101386.03;;;8.66;100.00
4085;BME280;2057;50.858;6.572;2023-02-03T12:58:23;101384.06;;;8.74;100.00
4085;BME280;2057;50.858;6.572;2023-02-03T13:01:01;101381.53;;;8.74;100.00
4085;BME280;2057;50.858;6.572;2023-02-03T13:06:09;101380.09;;;8.66;100.00
4085;BME280;2057;50.858;6.572;2023-02-03T13:08:39;101375.91;;;8.66;100.00
4085;BME280;2057;50.858;6.572;2023-02-03T13:13:55;101393.53;;;8.65;100.00
4085;BME280;2057;50.858;6.572;2023-02-03T13:16:29;101379.00;;;8.62;100.00
4085;BME280;2057;50.858;6.572;2023-02-03T13:19:01;101367.13;;;8.61;100.00
4085;BME280;2057;50.858;6.572;2023-02-03T13:21:27;101382.41;;;8.62;100.00
4085;BME280;2057;50.858;6.572;2023-02-03T13:23:53;101412.69;;;8.61;100.00
4085;BME280;2057;50.858;6.572;2023-02-03T13:42:31;101395.28;;;8.66;100.00
4085;BME280;2057;50.858;6.572;2023-02-03T13:45:13;101407.81;;;8.64;100.00
4085;BME280;2057;50.858;6.572;2023-02-03T13:47:45;101380.09;;;8.66;100.00
4085;BME280;2057;50.858;6.572;2023-02-03T13:50:23;101390.09;;;8.64;100.00
4085;BME280;2057;50.858;6.572;2023-02-03T13:52:57;101389.91;;;8.61;100.00
4085;BME280;2057;50.858;6.572;2023-02-03T13:55:32;101382.06;;;8.70;100.00
4085;BME280;2057;50.858;6.572;2023-02-03T13:58:00;101376.81;;;8.67;100.00
4085;BME280;2057;50.858;6.572;2023-02-03T14:03:39;101394.41;;;8.65;100.00
4085;BME280;2057;50.858;6.572;2023-02-03T14:06:04;101381.75;;;8.65;100.00
4085;BME280;2057;50.858;6.572;2023-02-03T14:16:33;101397.25;;;8.58;100.00
4085;BME280;2057;50.858;6.572;2023-02-03T14:18:58;101404.63;;;8.55;100.00
4085;BME280;2057;50.858;6.572;2023-02-03T14:21:24;101400.38;;;8.54;100.00
4085;BME280;2057;50.858;6.572;2023-02-03T14:24:03;101407.63;;;8.49;100.00
4085;BME280;2057;50.858;6.572;2023-02-03T14:26:34;101415.81;;;8.46;100.00
4085;BME280;2057;50.858;6.572;2023-02-03T14:29:03;101416.84;;;8.48;100.00
4085;BME280;2057;50.858;6.572;2023-02-03T14:31:29;101411.31;;;8.42;100.00
4085;BME280;2057;50.858;6.572;2023-02-03T14:38:53;101430.97;;;8.35;100.00
4085;BME280;2057;50.858;6.572;2023-02-03T14:41:41;101445.75;;;8.40;100.00
4085;BME280;2057;50.858;6.572;2023-02-03T14:58:36;101438.00;;;8.49;100.00
4085;BME280;2057;50.858;6.572;2023-02-03T15:01:26;101432.47;;;8.55;100.00
4085;BME280;2057;50.858;6.572;2023-02-03T15:09:15;101435.00;;;8.55;100.00
4085;BME280;2057;50.858;6.572;2023-02-03T15:11:43;101422.56;;;8.58;100.00
4085;BME280;2057;50.858;6.572;2023-02-03T15:14:28;101435.34;;;8.59;100.00
4085;BME280;2057;50.858;6.572;2023-02-03T15:16:59;101439.44;;;8.69;100.00
4085;BME280;2057;50.858;6.572;2023-02-03T15:19:30;101428.19;;;8.66;100.00
4085;BME280;2057;50.858;6.572;2023-02-03T15:21:56;101438.75;;;8.72;100.00
4085;BME280;2057;50.858;6.572;2023-02-03T15:24:21;101439.97;;;8.77;100.00
4085;BME280;2057;50.858;6.572;2023-02-03T15:26:50;101440.72;;;8.76;100.00
4085;BME280;2057;50.858;6.572;2023-02-03T15:29:29;101450.75;;;8.74;100.00
4085;BME280;2057;50.858;6.572;2023-02-03T15:32:01;101466.19;;;8.77;100.00